createdAt,value
2023-03-11T00:00:22.431Z,18.50
2023-03-11T00:02:51.190Z,18.40
2023-03-11T00:08:02.054Z,18.40
2023-03-11T00:10:34.540Z,18.40
2023-03-11T00:13:01.525Z,18.40
2023-03-11T00:15:29.270Z,18.40
2023-03-11T00:17:56.948Z,18.40
2023-03-11T00:20:27.692Z,18.40
2023-03-11T00:22:54.887Z,18.40
2023-03-11T00:25:23.883Z,18.40
2023-03-11T00:27:51.010Z,18.40
2023-03-11T00:32:53.694Z,18.30
2023-03-11T00:35:23.361Z,18.40
2023-03-11T00:37:53.729Z,18.40
2023-03-11T00:40:22.498Z,18.40
2023-03-11T00:42:49.137Z,18.30
2023-03-11T00:45:16.521Z,18.30
2023-03-11T00:47:43.424Z,18.30
2023-03-11T00:50:13.868Z,18.30
2023-03-11T00:55:14.642Z,18.30
2023-03-11T00:57:41.615Z,18.30
2023-03-11T01:00:11.697Z,18.30
2023-03-11T01:02:38.808Z,18.30
2023-03-11T01:05:06.734Z,18.30
2023-03-11T01:07:33.613Z,18.30
2023-03-11T01:10:00.571Z,18.30
2023-03-11T01:12:27.295Z,18.30
2023-03-11T01:14:53.869Z,18.30
2023-03-11T01:17:22.012Z,18.30
2023-03-11T01:40:01.899Z,18.30
2023-03-11T01:50:12.102Z,18.30
2023-03-11T01:52:39.177Z,18.20
2023-03-11T02:08:00.495Z,18.30
2023-03-11T02:10:27.492Z,18.20
2023-03-11T02:12:54.236Z,18.20
2023-03-11T02:15:20.905Z,18.20
2023-03-11T02:17:47.698Z,18.20
2023-03-11T02:20:36.302Z,18.20
2023-03-11T02:23:03.000Z,18.20
2023-03-11T02:26:01.246Z,18.20
2023-03-11T02:28:29.731Z,18.20
2023-03-11T02:30:56.882Z,18.20
2023-03-11T02:33:26.565Z,18.20
2023-03-11T02:35:53.271Z,18.20
2023-03-11T02:38:19.890Z,18.20
2023-03-11T02:40:49.640Z,18.20
2023-03-11T02:45:53.551Z,18.20
2023-03-11T02:48:21.852Z,18.20
2023-03-11T02:50:48.594Z,18.20
2023-03-11T02:53:15.445Z,18.20
2023-03-11T02:55:42.163Z,18.20
2023-03-11T02:58:09.130Z,18.20
2023-03-11T03:00:35.745Z,18.20
2023-03-11T03:03:02.352Z,18.20
2023-03-11T03:05:29.198Z,18.20
2023-03-11T03:07:55.750Z,18.20
2023-03-11T03:10:23.863Z,18.20
2023-03-11T03:12:50.494Z,18.20
2023-03-11T03:15:17.226Z,18.20
2023-03-11T03:17:44.434Z,18.20
2023-03-11T03:20:12.535Z,18.10
2023-03-11T03:25:12.505Z,18.20
2023-03-11T03:27:39.645Z,18.10
2023-03-11T03:30:07.342Z,18.10
2023-03-11T03:32:34.402Z,18.20
2023-03-11T03:35:01.798Z,18.10
2023-03-11T03:37:28.848Z,18.10
2023-03-11T03:39:55.409Z,18.10
2023-03-11T03:42:22.046Z,18.10
2023-03-11T03:44:48.602Z,18.10
2023-03-11T03:47:15.213Z,18.10
2023-03-11T03:49:41.757Z,18.10
2023-03-11T03:52:08.631Z,18.10
2023-03-11T03:54:35.193Z,18.10
2023-03-11T03:57:02.213Z,18.10
2023-03-11T03:59:28.882Z,18.10
2023-03-11T04:01:55.653Z,18.10
2023-03-11T04:04:22.618Z,18.10
2023-03-11T04:06:49.306Z,18.10
2023-03-11T04:09:15.919Z,18.10
2023-03-11T04:11:42.459Z,18.10
2023-03-11T04:14:09.533Z,18.10
2023-03-11T04:16:36.288Z,18.10
2023-03-11T04:19:04.674Z,18.10
2023-03-11T04:21:32.334Z,18.10
2023-03-11T04:23:59.062Z,18.10
2023-03-11T04:26:25.834Z,18.10
2023-03-11T04:28:52.428Z,18.00
2023-03-11T04:31:19.030Z,18.10
2023-03-11T04:33:45.565Z,18.10
2023-03-11T04:36:12.815Z,18.10
2023-03-11T04:38:39.564Z,18.10
2023-03-11T04:41:06.740Z,18.10
2023-03-11T04:43:33.675Z,18.10
2023-03-11T04:46:00.315Z,18.10
2023-03-11T04:48:27.602Z,18.00
2023-03-11T04:50:55.477Z,18.10
2023-03-11T04:53:22.775Z,18.10
2023-03-11T04:58:22.013Z,18.10
2023-03-11T05:00:48.629Z,18.10
2023-03-11T05:03:15.206Z,18.10
2023-03-11T05:05:41.799Z,18.00
2023-03-11T05:08:08.555Z,18.00
2023-03-11T05:10:35.373Z,18.10
2023-03-11T05:13:01.929Z,18.10
2023-03-11T05:18:03.678Z,18.00
2023-03-11T05:23:03.053Z,18.00
2023-03-11T05:25:29.764Z,18.00
2023-03-11T05:27:56.407Z,18.00
2023-03-11T05:30:23.035Z,18.00
2023-03-11T05:32:49.938Z,18.00
2023-03-11T05:35:16.619Z,18.00
2023-03-11T05:37:43.180Z,18.00
2023-03-11T05:40:12.873Z,18.00
2023-03-11T05:45:13.097Z,18.00
2023-03-11T05:47:42.156Z,18.00
2023-03-11T05:52:42.447Z,18.00
2023-03-11T05:57:42.983Z,18.00
2023-03-11T06:00:13.158Z,18.00
2023-03-11T06:05:13.869Z,18.00
2023-03-11T06:10:12.334Z,18.00
2023-03-11T06:12:38.940Z,18.00
2023-03-11T06:15:09.152Z,18.00
2023-03-11T06:17:35.766Z,18.00
2023-03-11T06:20:02.611Z,18.00
2023-03-11T06:22:29.141Z,18.00
2023-03-11T06:24:55.657Z,18.00
2023-03-11T06:27:22.176Z,18.00
2023-03-11T06:29:53.288Z,18.00
2023-03-11T06:34:52.641Z,18.00
2023-03-11T06:37:19.389Z,17.90
2023-03-11T06:39:45.914Z,18.00
2023-03-11T06:42:12.969Z,18.00
2023-03-11T06:49:42.796Z,18.00
2023-03-11T06:57:13.745Z,18.00
2023-03-11T07:02:14.252Z,18.00
2023-03-11T07:07:12.229Z,18.00
2023-03-11T07:09:38.761Z,17.90
2023-03-11T07:12:06.823Z,17.90
2023-03-11T07:14:33.671Z,17.90
2023-03-11T07:19:31.971Z,18.00
2023-03-11T07:21:58.580Z,18.00
2023-03-11T07:24:25.190Z,18.00
2023-03-11T07:26:51.839Z,17.90
2023-03-11T07:29:18.973Z,17.90
2023-03-11T07:31:45.826Z,17.90
2023-03-11T07:34:12.896Z,18.00
2023-03-11T07:36:42.025Z,18.00
2023-03-11T07:39:12.864Z,17.90
2023-03-11T07:44:13.780Z,18.00
2023-03-11T07:49:12.667Z,17.90
2023-03-11T07:51:42.328Z,18.00
2023-03-11T07:56:42.739Z,18.00
2023-03-11T08:04:14.720Z,18.00
2023-03-11T08:06:43.322Z,18.00
2023-03-11T08:11:43.000Z,17.90
2023-03-11T08:19:13.928Z,17.90
2023-03-11T08:24:13.816Z,18.00
2023-03-11T08:29:12.739Z,18.00
2023-03-11T08:34:11.962Z,18.00
2023-03-11T08:41:41.908Z,18.00
2023-03-11T08:51:43.060Z,18.00
2023-03-11T08:59:12.724Z,18.00
2023-03-11T09:01:39.345Z,17.90
2023-03-11T09:04:06.389Z,17.90
2023-03-11T09:06:32.963Z,17.90
2023-03-11T09:14:03.257Z,18.00
2023-03-11T09:19:03.881Z,18.00
2023-03-11T09:24:04.147Z,18.00
2023-03-11T09:26:33.676Z,18.00
2023-03-11T09:31:31.890Z,18.00
2023-03-11T09:33:58.446Z,18.00
2023-03-11T09:36:25.161Z,18.00
2023-03-11T09:38:51.796Z,18.00
2023-03-11T09:41:18.275Z,18.00
2023-03-11T09:43:55.866Z,18.00
2023-03-11T09:55:34.421Z,18.10
2023-03-11T10:06:16.158Z,18.20
2023-03-11T10:12:02.969Z,18.20
2023-03-11T10:17:04.899Z,18.20
2023-03-11T10:25:13.893Z,18.20
2023-03-11T10:27:51.759Z,18.20
2023-03-11T10:35:54.258Z,18.20
2023-03-11T10:38:47.048Z,18.30
2023-03-11T10:41:31.922Z,18.30
2023-03-11T10:44:05.818Z,18.30
2023-03-11T10:46:32.431Z,18.30
2023-03-11T10:51:36.734Z,18.30
2023-03-11T10:54:04.807Z,18.30
2023-03-11T10:59:32.639Z,18.30
2023-03-11T11:13:08.038Z,18.30
2023-03-11T11:15:37.385Z,18.40
2023-03-11T11:18:17.952Z,18.40
2023-03-11T11:21:07.465Z,18.40
2023-03-11T11:26:25.786Z,18.40
2023-03-11T11:29:12.617Z,18.40
2023-03-11T11:31:46.472Z,18.40
2023-03-11T11:34:34.535Z,18.40
2023-03-11T11:37:04.411Z,18.40
2023-03-11T11:42:14.391Z,18.40
2023-03-11T11:44:43.585Z,18.40
2023-03-11T11:47:26.017Z,18.40
2023-03-11T11:49:56.649Z,18.50
2023-03-11T12:00:58.070Z,18.50
2023-03-11T12:06:41.718Z,18.60
2023-03-11T12:09:42.040Z,18.70
2023-03-11T12:12:24.208Z,18.70
2023-03-11T12:29:01.850Z,18.70
2023-03-11T12:34:12.105Z,18.80
2023-03-11T13:45:31.601Z,19.00
2023-03-11T14:07:35.102Z,19.10
2023-03-11T14:10:19.790Z,19.10
2023-03-11T14:12:47.090Z,19.10
2023-03-11T14:15:18.909Z,19.10
2023-03-11T14:17:48.329Z,19.10
2023-03-11T14:20:23.577Z,19.10
2023-03-11T14:22:52.746Z,19.10
2023-03-11T14:25:28.038Z,19.10
2023-03-11T14:27:55.992Z,19.10
2023-03-11T14:30:26.236Z,19.00
2023-03-11T14:33:20.002Z,19.10
2023-03-11T14:36:04.743Z,19.10
2023-03-11T14:38:32.557Z,19.10
2023-03-11T14:41:05.747Z,19.10
2023-03-11T14:43:35.038Z,19.00
2023-03-11T14:46:04.635Z,19.10
2023-03-11T14:48:39.357Z,19.00
2023-03-11T14:51:14.400Z,19.00
2023-03-11T14:53:56.101Z,19.10
2023-03-11T14:56:25.240Z,19.00
2023-03-11T14:59:07.008Z,19.00
2023-03-11T15:04:13.500Z,19.00
2023-03-11T15:06:43.414Z,19.00
2023-03-11T15:09:15.985Z,19.00
2023-03-11T15:11:55.063Z,18.00
2023-03-11T15:14:23.978Z,17.30
2023-03-11T15:16:52.328Z,16.80
2023-03-11T15:19:27.872Z,16.40
2023-03-11T15:22:06.260Z,16.20
2023-03-11T15:24:33.752Z,16.60
2023-03-11T15:29:52.686Z,17.50
2023-03-11T15:32:43.182Z,17.90
2023-03-11T15:35:12.452Z,18.00
2023-03-11T15:40:42.292Z,18.30
2023-03-11T15:45:43.296Z,18.50
2023-03-11T15:48:13.771Z,18.50
2023-03-11T15:50:53.445Z,18.50
2023-03-11T15:53:21.367Z,18.60
2023-03-11T16:08:30.860Z,18.70
2023-03-11T16:18:33.653Z,18.80
2023-03-11T16:21:02.073Z,18.80
2023-03-11T16:23:50.160Z,18.80
2023-03-11T16:26:17.718Z,18.80
2023-03-11T16:28:44.302Z,18.80
2023-03-11T16:31:10.950Z,18.80
2023-03-11T16:43:52.895Z,18.80
2023-03-11T16:48:53.086Z,18.80
2023-03-11T16:56:22.746Z,18.80
2023-03-11T17:01:21.667Z,18.80
2023-03-11T17:06:22.189Z,18.80
2023-03-11T17:11:23.284Z,18.80
2023-03-11T17:13:53.394Z,18.80
2023-03-11T17:18:52.275Z,18.80
2023-03-11T17:26:22.672Z,18.80
2023-03-11T17:31:20.837Z,18.80
2023-03-11T17:46:27.415Z,18.70
2023-03-11T17:48:54.020Z,18.80
2023-03-11T17:51:23.421Z,18.80
2023-03-11T17:56:23.281Z,18.80
2023-03-11T18:01:27.995Z,18.80
2023-03-11T18:03:54.959Z,18.80
2023-03-11T18:06:22.232Z,18.80
2023-03-11T18:08:49.348Z,18.80
2023-03-11T18:11:20.264Z,18.80
2023-03-11T18:13:47.018Z,18.80
2023-03-11T18:16:16.507Z,18.80
2023-03-11T18:18:43.919Z,18.90
2023-03-11T18:21:22.163Z,18.80
2023-03-11T18:28:54.040Z,18.80
2023-03-11T18:31:22.874Z,18.90
2023-03-11T18:33:52.336Z,18.90
2023-03-11T18:36:37.525Z,18.90
2023-03-11T18:39:04.869Z,18.90
2023-03-11T18:41:33.497Z,18.90
2023-03-11T18:46:33.217Z,18.90
2023-03-11T18:51:33.082Z,18.90
2023-03-11T18:56:27.083Z,19.00
2023-03-11T18:58:55.576Z,18.90
2023-03-11T19:01:22.402Z,18.40
2023-03-11T19:03:51.937Z,18.50
2023-03-11T19:11:23.185Z,18.70
2023-03-11T19:13:50.424Z,18.70
2023-03-11T19:18:53.767Z,18.70
2023-03-11T19:23:55.086Z,18.70
2023-03-11T19:26:33.863Z,18.70
2023-03-11T19:29:08.896Z,18.70
2023-03-11T19:31:35.606Z,18.70
2023-03-11T19:34:02.338Z,18.70
2023-03-11T19:36:30.050Z,18.70
2023-03-11T19:38:56.658Z,18.70
2023-03-11T19:41:23.304Z,18.70
2023-03-11T19:43:49.949Z,18.70
2023-03-11T19:46:19.397Z,18.70
2023-03-11T19:48:46.419Z,18.70
2023-03-11T19:51:13.868Z,18.70
2023-03-11T19:53:41.515Z,18.70
2023-03-11T19:58:42.446Z,18.70
2023-03-11T20:08:52.367Z,18.70
2023-03-11T20:13:50.546Z,18.60
2023-03-11T20:16:19.317Z,18.60
2023-03-11T20:18:50.221Z,18.60
2023-03-11T20:21:16.992Z,18.60
2023-03-11T20:23:43.563Z,18.60
2023-03-11T20:26:12.829Z,18.60
2023-03-11T20:28:39.422Z,18.60
2023-03-11T20:31:13.788Z,18.60
2023-03-11T20:33:40.655Z,18.60
2023-03-11T20:36:09.933Z,18.50
2023-03-11T20:38:36.594Z,18.60
2023-03-11T20:41:07.950Z,18.60
2023-03-11T20:43:34.871Z,18.60
2023-03-11T20:46:01.685Z,18.60
2023-03-11T20:48:28.965Z,18.60
2023-03-11T20:51:02.630Z,18.60
2023-03-11T20:53:30.547Z,18.50
2023-03-11T20:56:06.730Z,18.60
2023-03-11T20:58:33.577Z,18.60
2023-03-11T21:01:00.196Z,18.60
2023-03-11T21:03:26.990Z,18.50
2023-03-11T21:05:53.588Z,18.50
2023-03-11T21:08:20.138Z,18.50
2023-03-11T21:10:46.757Z,18.50
2023-03-11T21:13:13.335Z,18.50
2023-03-11T21:15:40.077Z,18.50
2023-03-11T21:18:06.966Z,18.50
2023-03-11T21:20:33.556Z,18.50
2023-03-11T21:23:00.159Z,18.50
2023-03-11T21:25:26.845Z,18.50
2023-03-11T21:27:53.493Z,18.50
2023-03-11T21:30:20.322Z,18.50
2023-03-11T21:32:47.134Z,18.50
2023-03-11T21:35:13.901Z,18.50
2023-03-11T21:37:40.554Z,18.50
2023-03-11T21:40:08.046Z,18.50
2023-03-11T21:42:34.642Z,18.50
2023-03-11T21:47:32.819Z,18.50
2023-03-11T21:49:59.461Z,18.50
2023-03-11T21:52:26.469Z,18.50
2023-03-11T21:54:53.107Z,18.50
2023-03-11T21:57:19.769Z,18.50
2023-03-11T21:59:46.471Z,18.50
2023-03-11T22:02:15.659Z,18.50
2023-03-11T22:04:43.296Z,18.40
2023-03-11T22:07:10.353Z,18.40
2023-03-11T22:09:37.688Z,18.50
2023-03-11T22:12:04.751Z,18.40
2023-03-11T22:17:03.104Z,18.40
2023-03-11T22:19:29.966Z,18.40
2023-03-11T22:21:56.601Z,18.40
2023-03-11T22:24:23.297Z,18.40
2023-03-11T22:26:49.896Z,18.40
2023-03-11T22:29:16.524Z,18.40
2023-03-11T22:31:43.171Z,18.40
2023-03-11T22:34:09.754Z,18.40
2023-03-11T22:36:36.299Z,18.40
2023-03-11T22:39:04.282Z,18.40
2023-03-11T22:44:02.847Z,18.40
2023-03-11T22:46:29.904Z,18.30
2023-03-11T22:48:56.485Z,18.40
2023-03-11T22:51:23.096Z,18.40
2023-03-11T22:53:49.710Z,18.30
2023-03-11T22:56:17.520Z,18.30
2023-03-11T22:58:44.642Z,18.40
2023-03-11T23:01:11.660Z,18.30
2023-03-11T23:03:39.001Z,18.30
2023-03-11T23:06:08.062Z,18.30
2023-03-11T23:08:35.674Z,18.30
2023-03-11T23:11:08.110Z,18.30
2023-03-11T23:13:35.776Z,18.30
2023-03-11T23:16:07.761Z,18.30
2023-03-11T23:23:42.659Z,18.30
2023-03-11T23:28:43.197Z,18.30
2023-03-11T23:38:51.913Z,18.30
2023-03-11T23:41:23.620Z,18.30
2023-03-11T23:43:50.686Z,18.30
2023-03-11T23:46:17.267Z,18.30
2023-03-11T23:48:43.886Z,18.30
2023-03-11T23:53:42.117Z,18.20
2023-03-11T23:58:42.640Z,18.30
